createdAt,value
2019-02-04T00:04:58.606Z,8.53
2019-02-04T00:07:51.125Z,9.03
2019-02-04T00:10:21.421Z,8.87
2019-02-04T00:15:47.210Z,8.83
2019-02-04T00:18:17.580Z,9.13
2019-02-04T00:20:51.284Z,9.13
2019-02-04T00:23:33.996Z,8.47
2019-02-04T00:26:16.642Z,9.23
2019-02-04T00:28:47.992Z,8.20
2019-02-04T00:31:30.652Z,9.00
2019-02-04T00:34:00.952Z,8.90
2019-02-04T00:39:27.115Z,9.07
2019-02-04T00:42:16.444Z,8.40
2019-02-04T00:50:32.156Z,8.47
2019-02-04T00:53:43.809Z,8.70
2019-02-04T00:56:14.870Z,8.50
2019-02-04T00:58:45.507Z,8.90
2019-02-04T01:01:46.488Z,7.43
2019-02-04T01:04:17.277Z,7.87
2019-02-04T01:06:47.597Z,8.93
2019-02-04T01:09:29.363Z,9.00
2019-02-04T01:12:00.012Z,8.83
2019-02-04T01:20:52.852Z,9.03
2019-02-04T01:23:23.281Z,8.23
2019-02-04T01:25:53.550Z,8.60
2019-02-04T01:28:35.707Z,8.83
2019-02-04T01:31:19.989Z,9.03
2019-02-04T01:33:52.772Z,8.47
2019-02-04T01:36:23.344Z,8.93
2019-02-04T01:39:33.449Z,8.23
2019-02-04T01:42:06.505Z,8.30
2019-02-04T01:45:05.691Z,8.60
2019-02-04T01:47:55.396Z,8.17
2019-02-04T01:53:22.869Z,8.10
2019-02-04T01:56:12.302Z,7.60
2019-02-04T01:58:42.901Z,7.80
2019-02-04T02:06:45.263Z,7.97
2019-02-04T02:09:34.727Z,8.10
2019-02-04T02:14:55.967Z,7.93
2019-02-04T02:17:39.765Z,8.40
2019-02-04T02:20:31.150Z,7.20
2019-02-04T02:23:01.305Z,8.00
2019-02-04T02:25:45.458Z,8.10
2019-02-04T02:28:28.232Z,7.30
2019-02-04T02:30:58.891Z,7.67
2019-02-04T02:33:29.152Z,7.43
2019-02-04T02:36:18.754Z,7.83
2019-02-04T02:38:49.049Z,7.67
2019-02-04T02:41:20.390Z,7.53
2019-02-04T02:44:03.420Z,7.93
2019-02-04T02:46:45.978Z,7.17
2019-02-04T02:49:16.226Z,7.97
2019-02-04T02:51:46.846Z,8.50
2019-02-04T02:54:28.351Z,8.10
2019-02-04T02:57:10.676Z,8.67
2019-02-04T03:00:04.025Z,7.87
2019-02-04T03:02:41.623Z,7.17
2019-02-04T03:05:31.197Z,7.23
2019-02-04T03:08:01.495Z,8.13
2019-02-04T03:10:42.367Z,7.73
2019-02-04T03:13:35.136Z,7.20
2019-02-04T03:16:12.807Z,7.90
2019-02-04T03:18:43.502Z,7.43
2019-02-04T03:21:25.872Z,8.20
2019-02-04T03:24:08.052Z,6.37
2019-02-04T03:26:38.769Z,7.80
2019-02-04T03:29:09.521Z,7.43
2019-02-04T03:31:51.950Z,6.90
2019-02-04T03:34:36.541Z,7.60
2019-02-04T03:40:09.183Z,7.47
2019-02-04T03:42:51.438Z,6.40
2019-02-04T03:45:21.809Z,6.77
2019-02-04T03:48:04.289Z,6.53
2019-02-04T03:50:43.274Z,6.77
2019-02-04T03:53:13.629Z,6.17
2019-02-04T03:56:03.114Z,6.73
2019-02-04T03:58:40.706Z,6.13
2019-02-04T04:01:11.090Z,6.60
2019-02-04T04:03:41.710Z,6.80
2019-02-04T04:06:50.252Z,6.90
2019-02-04T04:09:20.910Z,6.73
2019-02-04T04:11:51.182Z,6.20
2019-02-04T04:14:33.678Z,6.20
2019-02-04T04:17:15.236Z,6.73
2019-02-04T04:19:45.487Z,6.87
2019-02-04T04:22:15.784Z,6.30
2019-02-04T04:25:08.632Z,6.87
2019-02-04T04:28:18.414Z,6.43
2019-02-04T04:30:48.730Z,6.67
2019-02-04T04:33:31.636Z,5.70
2019-02-04T04:36:13.962Z,6.57
2019-02-04T04:38:44.760Z,6.37
2019-02-04T04:41:15.100Z,6.93
2019-02-04T04:43:57.606Z,7.10
2019-02-04T04:46:40.986Z,7.40
2019-02-04T04:49:11.568Z,6.07
2019-02-04T04:51:42.162Z,7.20
2019-02-04T04:54:24.230Z,6.40
2019-02-04T04:57:06.631Z,7.33
2019-02-04T04:59:36.910Z,7.03
2019-02-04T05:05:30.618Z,6.97
2019-02-04T05:08:00.938Z,6.90
2019-02-04T05:10:31.668Z,7.17
2019-02-04T05:13:08.899Z,6.93
2019-02-04T05:15:39.149Z,7.27
2019-02-04T05:18:09.693Z,6.70
2019-02-04T05:20:51.102Z,6.77
2019-02-04T05:23:31.675Z,6.23
2019-02-04T05:26:01.902Z,7.43
2019-02-04T05:28:51.579Z,5.87
2019-02-04T05:31:33.539Z,6.60
2019-02-04T05:34:05.813Z,6.10
2019-02-04T05:36:55.504Z,6.77
2019-02-04T05:42:28.899Z,6.47
2019-02-04T05:45:11.772Z,6.20
2019-02-04T05:47:42.112Z,6.47
2019-02-04T05:53:38.284Z,5.57
2019-02-04T06:01:39.164Z,6.13
2019-02-04T06:04:12.577Z,6.03
2019-02-04T06:07:03.597Z,6.40
2019-02-04T06:10:05.769Z,5.73
2019-02-04T06:12:38.369Z,5.70
2019-02-04T06:21:56.901Z,5.13
2019-02-04T06:24:30.295Z,5.43
2019-02-04T06:27:12.364Z,5.17
2019-02-04T06:29:44.829Z,5.30
2019-02-04T06:32:38.418Z,5.90
2019-02-04T06:35:28.308Z,4.70
2019-02-04T06:44:12.051Z,4.77
2019-02-04T06:49:24.610Z,7.30
2019-02-04T06:52:15.725Z,6.77
2019-02-04T06:55:09.671Z,6.73
2019-02-04T06:57:39.938Z,6.50
2019-02-04T07:00:29.601Z,7.27
2019-02-04T07:03:07.323Z,7.73
2019-02-04T07:09:40.716Z,10.13
2019-02-04T07:12:11.243Z,9.00
2019-02-04T07:20:53.129Z,9.63
2019-02-04T07:23:35.294Z,8.50
2019-02-04T07:26:05.573Z,8.30
2019-02-04T07:28:37.439Z,8.00
2019-02-04T07:31:08.000Z,7.93
2019-02-04T07:33:39.926Z,9.20
2019-02-04T07:36:31.648Z,7.00
2019-02-04T07:42:03.362Z,7.57
2019-02-04T07:44:33.609Z,6.63
2019-02-04T07:47:23.036Z,7.57
2019-02-04T07:50:04.886Z,7.70
2019-02-04T07:52:35.493Z,6.37
2019-02-04T07:55:17.391Z,16.13
2019-02-04T07:57:47.785Z,44.43
2019-02-04T08:04:10.346Z,12.77
2019-02-04T08:09:10.239Z,15.53
2019-02-04T08:11:40.597Z,14.07
2019-02-04T08:14:23.362Z,11.33
2019-02-04T08:17:09.236Z,8.90
2019-02-04T08:19:46.769Z,8.30
2019-02-04T08:22:20.981Z,8.57
2019-02-04T08:25:11.102Z,7.33
2019-02-04T08:28:02.824Z,7.90
2019-02-04T08:30:37.750Z,9.47
2019-02-04T08:33:31.286Z,7.37
2019-02-04T08:36:01.649Z,7.33
2019-02-04T08:38:32.689Z,7.27
2019-02-04T08:41:23.621Z,7.70
2019-02-04T08:43:53.981Z,8.23
2019-02-04T08:46:26.140Z,10.23
2019-02-04T08:49:08.521Z,12.03
2019-02-04T08:51:39.217Z,12.27
2019-02-04T08:54:09.500Z,12.30
2019-02-04T08:56:51.639Z,13.53
2019-02-04T08:59:33.984Z,12.43
2019-02-04T09:05:08.005Z,8.13
2019-02-04T09:07:41.956Z,7.70
2019-02-04T09:10:32.440Z,7.43
2019-02-04T09:13:03.145Z,6.43
2019-02-04T09:15:33.440Z,6.37
2019-02-04T09:18:04.097Z,6.57
2019-02-04T09:20:36.832Z,4.97
2019-02-04T09:23:07.526Z,4.13
2019-02-04T09:25:57.009Z,4.60
2019-02-04T09:31:29.495Z,3.73
2019-02-04T09:34:00.079Z,4.03
2019-02-04T09:40:38.410Z,3.70
2019-02-04T09:49:59.964Z,3.83
2019-02-04T09:55:33.193Z,3.40
2019-02-04T09:58:17.068Z,3.63
2019-02-04T10:03:33.134Z,3.37
2019-02-04T10:06:04.079Z,3.70
2019-02-04T10:08:45.868Z,3.33
2019-02-04T10:11:31.121Z,4.07
2019-02-04T10:14:02.328Z,3.53
2019-02-04T10:16:33.115Z,3.93
2019-02-04T10:19:15.427Z,4.30
2019-02-04T10:21:58.030Z,3.80
2019-02-04T10:24:30.778Z,4.40
2019-02-04T10:27:01.175Z,4.00
2019-02-04T10:29:49.813Z,4.23
2019-02-04T10:32:39.708Z,4.47
2019-02-04T10:35:29.944Z,4.77
2019-02-04T10:38:08.174Z,4.30
2019-02-04T10:40:38.948Z,4.70
2019-02-04T10:43:09.101Z,4.90
2019-02-04T10:45:43.417Z,4.63
2019-02-04T10:48:16.856Z,5.27
2019-02-04T10:50:47.403Z,4.77
2019-02-04T10:56:22.062Z,5.00
2019-02-04T10:58:52.434Z,4.93
2019-02-04T11:02:01.329Z,5.13
2019-02-04T11:04:33.467Z,4.67
2019-02-04T11:07:03.807Z,4.60
2019-02-04T11:09:45.480Z,5.27
2019-02-04T11:12:35.869Z,5.00
2019-02-04T11:15:07.710Z,5.20
2019-02-04T11:20:58.035Z,5.40
2019-02-04T11:26:15.075Z,5.30
2019-02-04T11:28:57.584Z,5.97
2019-02-04T11:34:29.443Z,5.60
2019-02-04T11:37:21.574Z,5.70
2019-02-04T11:39:51.912Z,5.30
2019-02-04T11:42:22.255Z,6.00
2019-02-04T11:45:06.688Z,5.77
2019-02-04T11:50:48.636Z,6.33
2019-02-04T11:53:53.771Z,6.07
2019-02-04T11:56:43.365Z,6.07
2019-02-04T11:59:34.383Z,5.30
2019-02-04T12:02:17.419Z,6.10
2019-02-04T12:04:52.858Z,5.93
2019-02-04T12:07:25.191Z,6.07
2019-02-04T12:10:07.929Z,5.90
2019-02-04T12:12:38.177Z,5.67
2019-02-04T12:15:26.014Z,6.10
2019-02-04T12:20:58.514Z,6.00
2019-02-04T12:23:42.066Z,6.20
2019-02-04T12:26:24.044Z,6.30
2019-02-04T12:32:36.088Z,7.57
2019-02-04T12:38:09.429Z,6.70
2019-02-04T12:40:40.193Z,7.03
2019-02-04T12:43:29.937Z,7.80
2019-02-04T12:46:00.411Z,7.43
2019-02-04T12:48:33.603Z,6.87
2019-02-04T12:51:15.227Z,7.50
2019-02-04T12:53:57.447Z,7.03
2019-02-04T12:56:31.726Z,6.90
2019-02-04T13:02:23.933Z,7.47
2019-02-04T13:04:54.201Z,7.47
2019-02-04T13:07:28.971Z,7.30
2019-02-04T13:10:18.833Z,6.70
2019-02-04T13:13:12.504Z,6.97
2019-02-04T13:15:27.645Z,6.87
2019-02-04T13:18:28.334Z,6.50
2019-02-04T13:21:00.905Z,7.33
2019-02-04T13:23:34.040Z,6.30
2019-02-04T13:26:44.804Z,7.10
2019-02-04T13:29:18.581Z,6.43
2019-02-04T13:35:10.907Z,6.27
2019-02-04T13:37:36.354Z,6.60
2019-02-04T13:40:20.132Z,6.80
2019-02-04T13:42:52.036Z,5.93
2019-02-04T13:45:22.400Z,6.07
2019-02-04T13:48:08.567Z,6.47
2019-02-04T13:50:47.827Z,6.47
2019-02-04T13:53:18.078Z,6.13
2019-02-04T13:56:01.564Z,8.20
2019-02-04T13:58:34.342Z,5.73
2019-02-04T14:01:23.775Z,6.33
2019-02-04T14:06:37.290Z,5.60
2019-02-04T14:09:29.222Z,6.60
2019-02-04T14:22:09.378Z,5.43
2019-02-04T14:24:55.235Z,5.80
2019-02-04T14:27:51.883Z,6.07
2019-02-04T14:33:23.808Z,5.77
2019-02-04T14:36:06.313Z,5.57
2019-02-04T14:38:37.201Z,5.80
2019-02-04T14:44:36.017Z,6.57
2019-02-04T14:47:16.972Z,7.87
2019-02-04T14:50:19.074Z,6.73
2019-02-04T14:53:27.903Z,6.33
2019-02-04T14:56:38.380Z,6.67
2019-02-04T15:00:03.973Z,5.20
2019-02-04T15:03:19.442Z,4.70
2019-02-04T15:06:25.469Z,5.00
2019-02-04T15:09:41.271Z,5.23
2019-02-04T15:13:09.574Z,4.57
2019-02-04T15:16:08.166Z,4.30
2019-02-04T15:19:11.941Z,4.43
2019-02-04T15:22:20.487Z,4.40
2019-02-04T15:25:50.552Z,4.83
2019-02-04T15:29:06.497Z,4.57
2019-02-04T15:32:18.063Z,4.97
2019-02-04T15:35:28.161Z,4.43
2019-02-04T15:38:36.631Z,4.97
2019-02-04T15:44:54.663Z,4.67
2019-02-04T15:47:46.868Z,4.23
2019-02-04T15:50:58.186Z,4.57
2019-02-04T15:56:36.792Z,4.87
2019-02-04T15:59:07.474Z,4.53
2019-02-04T16:01:40.899Z,4.47
2019-02-04T16:04:35.958Z,5.00
2019-02-04T16:07:10.947Z,4.67
2019-02-04T16:09:51.789Z,3.60
2019-02-04T16:15:43.127Z,4.23
2019-02-04T16:21:16.218Z,4.43
2019-02-04T16:23:58.386Z,4.40
2019-02-04T16:26:57.700Z,3.83
2019-02-04T16:29:56.008Z,4.60
2019-02-04T16:32:40.453Z,4.50
2019-02-04T16:35:14.616Z,4.70
2019-02-04T16:38:16.362Z,4.40
2019-02-04T16:40:52.701Z,4.40
2019-02-04T16:43:23.098Z,4.13
2019-02-04T16:46:16.848Z,3.83
2019-02-04T16:54:37.105Z,4.40
2019-02-04T16:57:29.664Z,4.07
2019-02-04T17:02:54.684Z,4.70
2019-02-04T17:05:45.941Z,3.87
2019-02-04T17:08:23.433Z,4.07
2019-02-04T17:10:53.905Z,4.73
2019-02-04T17:13:36.565Z,5.00
2019-02-04T17:22:22.176Z,4.27
2019-02-04T17:25:04.689Z,4.00
2019-02-04T17:27:38.301Z,4.17
2019-02-04T17:30:15.724Z,4.40
2019-02-04T17:33:27.221Z,4.63
2019-02-04T17:38:44.558Z,4.40
2019-02-04T17:41:38.855Z,4.87
2019-02-04T17:50:16.613Z,5.03
2019-02-04T17:52:47.043Z,5.00
2019-02-04T17:55:40.716Z,5.20
2019-02-04T18:11:02.054Z,4.70
2019-02-04T18:23:13.409Z,10.13
2019-02-04T18:26:22.263Z,4.40
2019-02-04T18:29:18.310Z,6.37
2019-02-04T18:32:35.440Z,5.40
2019-02-04T18:39:26.419Z,4.93
2019-02-04T18:45:17.342Z,4.30
2019-02-04T18:47:47.738Z,4.93
2019-02-04T18:50:43.737Z,5.17
2019-02-04T18:54:04.408Z,5.07
2019-02-04T18:56:34.206Z,5.20
2019-02-04T18:59:04.693Z,4.80
2019-02-04T19:01:54.479Z,4.80
2019-02-04T19:04:38.169Z,4.50
2019-02-04T19:07:24.137Z,4.57
2019-02-04T19:10:44.949Z,4.73
2019-02-04T19:13:11.773Z,7.50
2019-02-04T19:16:08.530Z,5.63
2019-02-04T19:18:52.029Z,4.27
2019-02-04T19:24:43.847Z,4.87
2019-02-04T19:30:44.807Z,3.87
2019-02-04T19:33:20.355Z,3.80
2019-02-04T19:36:10.102Z,4.23
2019-02-04T19:38:47.382Z,3.67
2019-02-04T19:44:39.039Z,4.03
2019-02-04T19:50:14.500Z,3.67
2019-02-04T19:53:15.111Z,3.50
2019-02-04T19:55:57.087Z,3.93
2019-02-04T20:01:29.959Z,3.50
2019-02-04T20:04:03.583Z,3.73
2019-02-04T20:06:34.263Z,3.77
2019-02-04T20:09:19.800Z,4.40
2019-02-04T20:12:11.304Z,5.43
2019-02-04T20:15:01.035Z,8.10
2019-02-04T20:17:33.010Z,6.77
2019-02-04T20:20:14.146Z,5.83
2019-02-04T20:23:06.637Z,5.30
2019-02-04T20:25:37.146Z,3.20
2019-02-04T20:32:18.316Z,2.60
2019-02-04T20:34:55.493Z,2.60
2019-02-04T20:37:21.372Z,2.60
2019-02-04T20:40:03.664Z,2.33
2019-02-04T20:42:45.935Z,2.70
2019-02-04T20:45:27.909Z,2.40
2019-02-04T20:51:41.538Z,3.17
2019-02-04T20:54:19.420Z,2.53
2019-02-04T20:56:50.005Z,2.50
2019-02-04T21:11:03.540Z,3.10
2019-02-04T21:16:55.674Z,2.73
2019-02-04T21:20:04.426Z,3.13
2019-02-04T21:23:25.079Z,2.80
2019-02-04T21:25:32.388Z,3.30
2019-02-04T21:28:14.494Z,3.73
2019-02-04T21:30:48.232Z,3.37
2019-02-04T21:36:27.328Z,3.47
2019-02-04T21:38:57.703Z,4.30
2019-02-04T21:41:49.470Z,3.87
2019-02-04T21:44:41.809Z,3.43
2019-02-04T21:47:12.071Z,3.60
2019-02-04T21:50:03.175Z,3.70
2019-02-04T21:52:33.729Z,3.47
2019-02-04T21:55:23.040Z,3.90
2019-02-04T21:58:07.010Z,3.80
2019-02-04T22:00:37.996Z,3.27
2019-02-04T22:03:08.846Z,3.70
2019-02-04T22:06:00.506Z,3.63
2019-02-04T22:08:30.916Z,3.20
2019-02-04T22:11:03.722Z,3.73
2019-02-04T22:13:46.061Z,3.57
2019-02-04T22:16:17.221Z,3.17
2019-02-04T22:18:47.524Z,3.97
2019-02-04T22:21:17.841Z,3.53
2019-02-04T22:24:03.260Z,3.33
2019-02-04T22:26:52.953Z,3.43
2019-02-04T22:29:23.464Z,3.50
2019-02-04T22:32:05.418Z,3.37
2019-02-04T22:34:46.865Z,3.63
2019-02-04T22:43:14.160Z,3.40
2019-02-04T22:45:44.416Z,2.77
2019-02-04T22:48:16.335Z,2.70
2019-02-04T22:51:05.040Z,2.70
2019-02-04T22:53:55.985Z,2.63
2019-02-04T22:56:31.879Z,2.80
2019-02-04T22:59:21.312Z,4.00
2019-02-04T23:01:54.058Z,3.03
2019-02-04T23:04:45.103Z,2.83
2019-02-04T23:07:26.932Z,3.00
2019-02-04T23:10:12.811Z,2.90
2019-02-04T23:13:03.865Z,2.90
2019-02-04T23:15:34.224Z,3.30
2019-02-04T23:18:05.238Z,2.87
2019-02-04T23:20:37.140Z,3.70
2019-02-04T23:23:19.525Z,3.30
2019-02-04T23:26:02.743Z,2.93
2019-02-04T23:28:33.284Z,3.30
2019-02-04T23:34:39.425Z,3.57
2019-02-04T23:37:12.415Z,2.93
2019-02-04T23:40:02.109Z,3.13
2019-02-04T23:42:34.366Z,3.93
2019-02-04T23:45:05.379Z,3.47
2019-02-04T23:47:55.095Z,3.73
2019-02-04T23:50:26.934Z,3.63
2019-02-04T23:52:57.164Z,4.00
2019-02-04T23:55:29.063Z,3.40
2019-02-04T23:57:59.431Z,3.60
